sensor_id;sensor_type;location;lat;lon;timestamp;P1;durP1;ratioP1;P2;durP2;ratioP2
75261;SDS011;63859;51.064;4.580;2024-02-21T00:02:11;21.27;;;8.67;;
75261;SDS011;63859;51.064;4.580;2024-02-21T00:04:37;29.50;;;9.40;;
75261;SDS011;63859;51.064;4.580;2024-02-21T00:07:03;21.83;;;8.00;;
75261;SDS011;63859;51.064;4.580;2024-02-21T00:09:29;26.37;;;8.17;;
75261;SDS011;63859;51.064;4.580;2024-02-21T00:11:56;26.20;;;8.40;;
75261;SDS011;63859;51.064;4.580;2024-02-21T00:14:23;21.67;;;7.93;;
75261;SDS011;63859;51.064;4.580;2024-02-21T00:16:49;23.73;;;8.27;;
75261;SDS011;63859;51.064;4.580;2024-02-21T00:19:14;23.00;;;7.43;;
75261;SDS011;63859;51.064;4.580;2024-02-21T00:21:40;25.87;;;7.80;;
75261;SDS011;63859;51.064;4.580;2024-02-21T00:24:06;30.23;;;8.37;;
75261;SDS011;63859;51.064;4.580;2024-02-21T00:26:32;22.53;;;7.80;;
75261;SDS011;63859;51.064;4.580;2024-02-21T00:28:58;22.10;;;7.43;;
75261;SDS011;63859;51.064;4.580;2024-02-21T00:31:24;24.87;;;8.07;;
75261;SDS011;63859;51.064;4.580;2024-02-21T00:33:50;20.60;;;7.70;;
75261;SDS011;63859;51.064;4.580;2024-02-21T00:36:15;20.40;;;6.97;;
75261;SDS011;63859;51.064;4.580;2024-02-21T00:38:41;20.40;;;6.90;;
75261;SDS011;63859;51.064;4.580;2024-02-21T00:41:07;26.57;;;7.33;;
75261;SDS011;63859;51.064;4.580;2024-02-21T00:43:33;21.57;;;7.37;;
75261;SDS011;63859;51.064;4.580;2024-02-21T00:45:58;20.90;;;7.33;;
75261;SDS011;63859;51.064;4.580;2024-02-21T00:48:24;19.90;;;7.07;;
75261;SDS011;63859;51.064;4.580;2024-02-21T00:50:51;23.40;;;7.67;;
75261;SDS011;63859;51.064;4.580;2024-02-21T00:53:17;20.70;;;7.10;;
75261;SDS011;63859;51.064;4.580;2024-02-21T00:55:43;21.87;;;7.47;;
75261;SDS011;63859;51.064;4.580;2024-02-21T00:58:08;27.30;;;7.37;;
75261;SDS011;63859;51.064;4.580;2024-02-21T01:00:34;20.80;;;7.07;;
75261;SDS011;63859;51.064;4.580;2024-02-21T01:03:00;19.70;;;7.40;;
75261;SDS011;63859;51.064;4.580;2024-02-21T01:05:26;21.43;;;8.07;;
75261;SDS011;63859;51.064;4.580;2024-02-21T01:07:54;19.40;;;7.80;;
75261;SDS011;63859;51.064;4.580;2024-02-21T01:10:20;20.60;;;7.07;;
75261;SDS011;63859;51.064;4.580;2024-02-21T01:12:45;20.77;;;7.60;;
75261;SDS011;63859;51.064;4.580;2024-02-21T01:15:11;18.87;;;7.33;;
75261;SDS011;63859;51.064;4.580;2024-02-21T01:17:37;17.93;;;7.30;;
75261;SDS011;63859;51.064;4.580;2024-02-21T01:20:05;22.03;;;7.27;;
75261;SDS011;63859;51.064;4.580;2024-02-21T01:22:32;22.00;;;7.63;;
75261;SDS011;63859;51.064;4.580;2024-02-21T01:24:57;18.63;;;6.73;;
75261;SDS011;63859;51.064;4.580;2024-02-21T01:27:23;18.80;;;6.20;;
75261;SDS011;63859;51.064;4.580;2024-02-21T01:29:49;23.57;;;6.93;;
75261;SDS011;63859;51.064;4.580;2024-02-21T01:32:15;22.60;;;6.83;;
75261;SDS011;63859;51.064;4.580;2024-02-21T01:34:41;22.57;;;7.63;;
75261;SDS011;63859;51.064;4.580;2024-02-21T01:37:06;16.93;;;7.13;;
75261;SDS011;63859;51.064;4.580;2024-02-21T01:39:33;16.50;;;6.97;;
75261;SDS011;63859;51.064;4.580;2024-02-21T01:41:59;20.30;;;6.97;;
75261;SDS011;63859;51.064;4.580;2024-02-21T01:44:25;23.00;;;7.53;;
75261;SDS011;63859;51.064;4.580;2024-02-21T01:46:51;21.17;;;7.33;;
75261;SDS011;63859;51.064;4.580;2024-02-21T01:49:17;17.67;;;7.47;;
75261;SDS011;63859;51.064;4.580;2024-02-21T01:51:44;20.07;;;7.57;;
75261;SDS011;63859;51.064;4.580;2024-02-21T01:54:10;21.57;;;7.80;;
75261;SDS011;63859;51.064;4.580;2024-02-21T01:56:38;25.07;;;8.27;;
75261;SDS011;63859;51.064;4.580;2024-02-21T01:59:04;21.50;;;7.53;;
75261;SDS011;63859;51.064;4.580;2024-02-21T02:01:30;29.13;;;8.20;;
75261;SDS011;63859;51.064;4.580;2024-02-21T02:03:56;26.23;;;8.30;;
75261;SDS011;63859;51.064;4.580;2024-02-21T02:06:22;25.30;;;7.50;;
75261;SDS011;63859;51.064;4.580;2024-02-21T02:08:48;22.60;;;8.20;;
75261;SDS011;63859;51.064;4.580;2024-02-21T02:11:14;24.43;;;7.93;;
75261;SDS011;63859;51.064;4.580;2024-02-21T02:13:40;20.20;;;7.93;;
75261;SDS011;63859;51.064;4.580;2024-02-21T02:16:06;22.67;;;8.20;;
75261;SDS011;63859;51.064;4.580;2024-02-21T02:18:32;26.07;;;8.60;;
75261;SDS011;63859;51.064;4.580;2024-02-21T02:20:57;27.77;;;9.13;;
75261;SDS011;63859;51.064;4.580;2024-02-21T02:25:56;24.67;;;10.33;;
75261;SDS011;63859;51.064;4.580;2024-02-21T02:28:22;25.63;;;10.47;;
75261;SDS011;63859;51.064;4.580;2024-02-21T02:30:49;31.73;;;11.37;;
75261;SDS011;63859;51.064;4.580;2024-02-21T02:33:14;23.73;;;10.30;;
75261;SDS011;63859;51.064;4.580;2024-02-21T02:35:42;29.20;;;10.77;;
75261;SDS011;63859;51.064;4.580;2024-02-21T02:38:08;30.37;;;11.33;;
75261;SDS011;63859;51.064;4.580;2024-02-21T02:40:34;22.80;;;10.33;;
75261;SDS011;63859;51.064;4.580;2024-02-21T02:43:00;35.27;;;10.40;;
75261;SDS011;63859;51.064;4.580;2024-02-21T02:45:26;26.53;;;9.43;;
75261;SDS011;63859;51.064;4.580;2024-02-21T02:47:55;20.93;;;9.47;;
75261;SDS011;63859;51.064;4.580;2024-02-21T02:50:22;27.77;;;9.87;;
75261;SDS011;63859;51.064;4.580;2024-02-21T02:52:48;22.40;;;9.60;;
75261;SDS011;63859;51.064;4.580;2024-02-21T02:55:14;25.10;;;9.40;;
75261;SDS011;63859;51.064;4.580;2024-02-21T02:57:40;23.60;;;9.60;;
75261;SDS011;63859;51.064;4.580;2024-02-21T03:00:09;20.73;;;9.13;;
75261;SDS011;63859;51.064;4.580;2024-02-21T03:02:37;29.87;;;9.03;;
75261;SDS011;63859;51.064;4.580;2024-02-21T03:05:10;25.53;;;10.17;;
75261;SDS011;63859;51.064;4.580;2024-02-21T03:07:40;23.70;;;9.83;;
75261;SDS011;63859;51.064;4.580;2024-02-21T03:10:07;28.03;;;9.90;;
75261;SDS011;63859;51.064;4.580;2024-02-21T03:12:33;27.63;;;9.50;;
75261;SDS011;63859;51.064;4.580;2024-02-21T03:14:59;28.23;;;9.53;;
75261;SDS011;63859;51.064;4.580;2024-02-21T03:17:25;32.73;;;9.67;;
75261;SDS011;63859;51.064;4.580;2024-02-21T03:19:53;22.33;;;9.30;;
75261;SDS011;63859;51.064;4.580;2024-02-21T03:22:20;26.83;;;9.97;;
75261;SDS011;63859;51.064;4.580;2024-02-21T03:24:46;25.70;;;9.23;;
75261;SDS011;63859;51.064;4.580;2024-02-21T03:27:12;25.40;;;9.50;;
75261;SDS011;63859;51.064;4.580;2024-02-21T03:29:38;27.03;;;9.77;;
75261;SDS011;63859;51.064;4.580;2024-02-21T03:32:03;20.03;;;9.07;;
75261;SDS011;63859;51.064;4.580;2024-02-21T03:34:29;28.63;;;9.70;;
75261;SDS011;63859;51.064;4.580;2024-02-21T03:36:55;28.20;;;9.30;;
75261;SDS011;63859;51.064;4.580;2024-02-21T03:39:21;19.93;;;8.87;;
75261;SDS011;63859;51.064;4.580;2024-02-21T03:41:47;23.37;;;9.03;;
75261;SDS011;63859;51.064;4.580;2024-02-21T03:44:12;23.03;;;8.97;;
75261;SDS011;63859;51.064;4.580;2024-02-21T03:46:38;22.37;;;9.40;;
75261;SDS011;63859;51.064;4.580;2024-02-21T03:49:04;19.60;;;9.07;;
75261;SDS011;63859;51.064;4.580;2024-02-21T03:51:29;24.37;;;9.50;;
75261;SDS011;63859;51.064;4.580;2024-02-21T03:53:55;20.37;;;8.20;;
75261;SDS011;63859;51.064;4.580;2024-02-21T03:56:21;22.07;;;8.70;;
75261;SDS011;63859;51.064;4.580;2024-02-21T03:58:46;24.20;;;8.93;;
75261;SDS011;63859;51.064;4.580;2024-02-21T04:01:14;28.33;;;9.20;;
75261;SDS011;63859;51.064;4.580;2024-02-21T04:03:40;23.93;;;8.97;;
75261;SDS011;63859;51.064;4.580;2024-02-21T04:06:06;20.93;;;7.63;;
75261;SDS011;63859;51.064;4.580;2024-02-21T04:08:33;21.80;;;8.90;;
75261;SDS011;63859;51.064;4.580;2024-02-21T04:10:58;31.43;;;9.60;;
75261;SDS011;63859;51.064;4.580;2024-02-21T04:13:24;24.80;;;8.50;;
75261;SDS011;63859;51.064;4.580;2024-02-21T04:15:50;30.50;;;8.33;;
75261;SDS011;63859;51.064;4.580;2024-02-21T04:18:16;20.70;;;9.60;;
75261;SDS011;63859;51.064;4.580;2024-02-21T04:20:42;23.13;;;8.63;;
75261;SDS011;63859;51.064;4.580;2024-02-21T04:23:08;23.70;;;8.23;;
75261;SDS011;63859;51.064;4.580;2024-02-21T04:25:34;23.57;;;8.60;;
75261;SDS011;63859;51.064;4.580;2024-02-21T04:28:00;19.73;;;8.53;;
75261;SDS011;63859;51.064;4.580;2024-02-21T04:30:26;19.80;;;8.57;;
75261;SDS011;63859;51.064;4.580;2024-02-21T04:32:52;22.80;;;8.23;;
75261;SDS011;63859;51.064;4.580;2024-02-21T04:35:18;20.57;;;8.67;;
75261;SDS011;63859;51.064;4.580;2024-02-21T04:37:44;16.73;;;8.00;;
75261;SDS011;63859;51.064;4.580;2024-02-21T04:40:09;23.70;;;8.40;;
75261;SDS011;63859;51.064;4.580;2024-02-21T04:42:36;27.93;;;8.77;;
75261;SDS011;63859;51.064;4.580;2024-02-21T04:45:01;21.27;;;8.70;;
75261;SDS011;63859;51.064;4.580;2024-02-21T04:47:28;20.73;;;8.47;;
75261;SDS011;63859;51.064;4.580;2024-02-21T04:49:53;21.97;;;8.30;;
75261;SDS011;63859;51.064;4.580;2024-02-21T04:52:19;20.33;;;8.93;;
75261;SDS011;63859;51.064;4.580;2024-02-21T04:54:45;18.30;;;7.77;;
75261;SDS011;63859;51.064;4.580;2024-02-21T04:57:10;16.97;;;8.10;;
75261;SDS011;63859;51.064;4.580;2024-02-21T04:59:36;43.57;;;9.70;;
75261;SDS011;63859;51.064;4.580;2024-02-21T05:02:02;23.57;;;8.50;;
75261;SDS011;63859;51.064;4.580;2024-02-21T05:04:28;20.50;;;8.60;;
75261;SDS011;63859;51.064;4.580;2024-02-21T05:06:54;17.10;;;8.03;;
75261;SDS011;63859;51.064;4.580;2024-02-21T05:09:20;20.37;;;8.37;;
75261;SDS011;63859;51.064;4.580;2024-02-21T05:11:46;19.00;;;8.40;;
75261;SDS011;63859;51.064;4.580;2024-02-21T05:14:12;24.70;;;9.13;;
75261;SDS011;63859;51.064;4.580;2024-02-21T05:16:38;24.97;;;9.67;;
75261;SDS011;63859;51.064;4.580;2024-02-21T05:19:05;27.37;;;9.90;;
75261;SDS011;63859;51.064;4.580;2024-02-21T05:21:30;25.07;;;8.97;;
75261;SDS011;63859;51.064;4.580;2024-02-21T05:23:56;60.80;;;11.57;;
75261;SDS011;63859;51.064;4.580;2024-02-21T05:26:23;23.20;;;8.63;;
75261;SDS011;63859;51.064;4.580;2024-02-21T05:28:52;30.90;;;9.33;;
75261;SDS011;63859;51.064;4.580;2024-02-21T05:31:18;36.23;;;9.93;;
75261;SDS011;63859;51.064;4.580;2024-02-21T05:33:44;23.23;;;9.40;;
75261;SDS011;63859;51.064;4.580;2024-02-21T05:36:11;20.90;;;8.97;;
75261;SDS011;63859;51.064;4.580;2024-02-21T05:38:37;24.07;;;9.63;;
75261;SDS011;63859;51.064;4.580;2024-02-21T05:41:03;22.70;;;9.37;;
75261;SDS011;63859;51.064;4.580;2024-02-21T05:43:29;28.97;;;10.23;;
75261;SDS011;63859;51.064;4.580;2024-02-21T05:45:55;36.70;;;10.20;;
75261;SDS011;63859;51.064;4.580;2024-02-21T05:48:24;29.17;;;8.97;;
75261;SDS011;63859;51.064;4.580;2024-02-21T05:50:50;20.27;;;8.70;;
75261;SDS011;63859;51.064;4.580;2024-02-21T05:53:16;26.30;;;8.90;;
75261;SDS011;63859;51.064;4.580;2024-02-21T05:55:42;25.20;;;9.50;;
75261;SDS011;63859;51.064;4.580;2024-02-21T05:58:07;20.93;;;9.23;;
75261;SDS011;63859;51.064;4.580;2024-02-21T06:00:37;21.40;;;8.20;;
75261;SDS011;63859;51.064;4.580;2024-02-21T06:03:03;19.27;;;8.43;;
75261;SDS011;63859;51.064;4.580;2024-02-21T06:05:29;19.43;;;8.07;;
75261;SDS011;63859;51.064;4.580;2024-02-21T06:07:56;26.13;;;9.00;;
75261;SDS011;63859;51.064;4.580;2024-02-21T06:10:22;22.23;;;8.40;;
75261;SDS011;63859;51.064;4.580;2024-02-21T06:12:48;20.97;;;8.33;;
75261;SDS011;63859;51.064;4.580;2024-02-21T06:15:14;23.43;;;8.70;;
75261;SDS011;63859;51.064;4.580;2024-02-21T06:17:40;28.23;;;8.43;;
75261;SDS011;63859;51.064;4.580;2024-02-21T06:20:05;26.63;;;8.97;;
75261;SDS011;63859;51.064;4.580;2024-02-21T06:22:31;21.57;;;8.40;;
75261;SDS011;63859;51.064;4.580;2024-02-21T06:24:57;22.33;;;8.20;;
75261;SDS011;63859;51.064;4.580;2024-02-21T06:27:23;22.90;;;8.87;;
75261;SDS011;63859;51.064;4.580;2024-02-21T06:29:49;25.30;;;8.63;;
75261;SDS011;63859;51.064;4.580;2024-02-21T06:32:15;17.87;;;8.57;;
75261;SDS011;63859;51.064;4.580;2024-02-21T06:34:41;16.60;;;8.33;;
75261;SDS011;63859;51.064;4.580;2024-02-21T06:37:06;23.27;;;7.90;;
75261;SDS011;63859;51.064;4.580;2024-02-21T06:39:32;19.17;;;8.00;;
75261;SDS011;63859;51.064;4.580;2024-02-21T06:41:58;21.27;;;8.83;;
75261;SDS011;63859;51.064;4.580;2024-02-21T06:44:24;22.30;;;8.07;;
75261;SDS011;63859;51.064;4.580;2024-02-21T06:46:51;24.17;;;7.40;;
75261;SDS011;63859;51.064;4.580;2024-02-21T06:49:16;16.07;;;8.10;;
75261;SDS011;63859;51.064;4.580;2024-02-21T06:51:42;20.03;;;7.17;;
75261;SDS011;63859;51.064;4.580;2024-02-21T06:54:08;23.40;;;7.90;;
75261;SDS011;63859;51.064;4.580;2024-02-21T06:56:35;18.93;;;7.20;;
75261;SDS011;63859;51.064;4.580;2024-02-21T06:59:02;19.97;;;7.80;;
75261;SDS011;63859;51.064;4.580;2024-02-21T07:01:28;17.10;;;7.77;;
75261;SDS011;63859;51.064;4.580;2024-02-21T07:03:57;15.60;;;6.93;;
75261;SDS011;63859;51.064;4.580;2024-02-21T07:06:23;21.73;;;6.50;;
75261;SDS011;63859;51.064;4.580;2024-02-21T07:08:49;19.40;;;7.03;;
75261;SDS011;63859;51.064;4.580;2024-02-21T07:11:14;34.73;;;8.60;;
75261;SDS011;63859;51.064;4.580;2024-02-21T07:13:40;14.20;;;6.37;;
75261;SDS011;63859;51.064;4.580;2024-02-21T07:16:06;34.03;;;7.67;;
75261;SDS011;63859;51.064;4.580;2024-02-21T07:18:33;25.93;;;7.33;;
75261;SDS011;63859;51.064;4.580;2024-02-21T07:20:59;20.13;;;7.07;;
75261;SDS011;63859;51.064;4.580;2024-02-21T07:23:24;37.57;;;7.97;;
75261;SDS011;63859;51.064;4.580;2024-02-21T07:25:50;111.10;;;13.40;;
75261;SDS011;63859;51.064;4.580;2024-02-21T07:28:16;17.43;;;7.57;;
75261;SDS011;63859;51.064;4.580;2024-02-21T07:30:42;21.00;;;6.23;;
75261;SDS011;63859;51.064;4.580;2024-02-21T07:33:08;21.10;;;6.20;;
75261;SDS011;63859;51.064;4.580;2024-02-21T07:35:34;19.47;;;6.37;;
75261;SDS011;63859;51.064;4.580;2024-02-21T07:38:03;15.47;;;6.67;;
75261;SDS011;63859;51.064;4.580;2024-02-21T07:40:29;22.90;;;6.57;;
75261;SDS011;63859;51.064;4.580;2024-02-21T07:42:55;17.40;;;6.57;;
75261;SDS011;63859;51.064;4.580;2024-02-21T07:45:21;17.77;;;7.43;;
75261;SDS011;63859;51.064;4.580;2024-02-21T07:47:48;13.27;;;6.67;;
75261;SDS011;63859;51.064;4.580;2024-02-21T07:50:14;18.43;;;7.60;;
75261;SDS011;63859;51.064;4.580;2024-02-21T07:52:40;15.13;;;8.23;;
75261;SDS011;63859;51.064;4.580;2024-02-21T07:55:07;18.60;;;8.07;;
75261;SDS011;63859;51.064;4.580;2024-02-21T07:57:33;14.80;;;8.93;;
75261;SDS011;63859;51.064;4.580;2024-02-21T07:59:58;25.50;;;10.03;;
75261;SDS011;63859;51.064;4.580;2024-02-21T08:02:24;22.17;;;13.00;;
75261;SDS011;63859;51.064;4.580;2024-02-21T08:04:50;23.00;;;12.10;;
75261;SDS011;63859;51.064;4.580;2024-02-21T08:07:16;25.97;;;11.83;;
75261;SDS011;63859;51.064;4.580;2024-02-21T08:09:41;28.07;;;12.97;;
75261;SDS011;63859;51.064;4.580;2024-02-21T08:12:07;22.67;;;11.33;;
75261;SDS011;63859;51.064;4.580;2024-02-21T08:14:33;20.47;;;11.47;;
75261;SDS011;63859;51.064;4.580;2024-02-21T08:16:58;19.63;;;9.83;;
75261;SDS011;63859;51.064;4.580;2024-02-21T08:19:24;17.13;;;9.37;;
75261;SDS011;63859;51.064;4.580;2024-02-21T08:21:50;19.37;;;9.70;;
75261;SDS011;63859;51.064;4.580;2024-02-21T08:24:15;18.03;;;10.10;;
75261;SDS011;63859;51.064;4.580;2024-02-21T08:26:42;18.13;;;9.03;;
75261;SDS011;63859;51.064;4.580;2024-02-21T08:29:09;15.23;;;8.53;;
75261;SDS011;63859;51.064;4.580;2024-02-21T08:31:35;18.23;;;7.83;;
75261;SDS011;63859;51.064;4.580;2024-02-21T08:34:01;17.70;;;7.70;;
75261;SDS011;63859;51.064;4.580;2024-02-21T08:36:33;21.30;;;11.10;;
75261;SDS011;63859;51.064;4.580;2024-02-21T08:39:00;13.03;;;7.83;;
75261;SDS011;63859;51.064;4.580;2024-02-21T08:41:26;15.70;;;8.00;;
75261;SDS011;63859;51.064;4.580;2024-02-21T08:43:52;13.13;;;6.97;;
75261;SDS011;63859;51.064;4.580;2024-02-21T08:46:22;13.40;;;8.17;;
75261;SDS011;63859;51.064;4.580;2024-02-21T08:48:51;16.77;;;8.70;;
75261;SDS011;63859;51.064;4.580;2024-02-21T08:51:17;12.10;;;7.13;;
75261;SDS011;63859;51.064;4.580;2024-02-21T08:53:44;14.30;;;8.30;;
75261;SDS011;63859;51.064;4.580;2024-02-21T08:56:10;13.70;;;7.30;;
75261;SDS011;63859;51.064;4.580;2024-02-21T08:58:36;16.37;;;7.00;;
75261;SDS011;63859;51.064;4.580;2024-02-21T09:01:05;16.87;;;7.00;;
75261;SDS011;63859;51.064;4.580;2024-02-21T09:03:32;16.90;;;7.43;;
75261;SDS011;63859;51.064;4.580;2024-02-21T09:05:58;14.37;;;6.87;;
75261;SDS011;63859;51.064;4.580;2024-02-21T09:08:27;14.87;;;7.27;;
75261;SDS011;63859;51.064;4.580;2024-02-21T09:10:54;17.33;;;7.07;;
75261;SDS011;63859;51.064;4.580;2024-02-21T09:13:20;20.80;;;7.93;;
75261;SDS011;63859;51.064;4.580;2024-02-21T09:15:46;19.97;;;7.03;;
75261;SDS011;63859;51.064;4.580;2024-02-21T09:18:13;12.03;;;6.33;;
75261;SDS011;63859;51.064;4.580;2024-02-21T09:20:39;14.13;;;6.20;;
75261;SDS011;63859;51.064;4.580;2024-02-21T09:23:05;16.40;;;6.73;;
75261;SDS011;63859;51.064;4.580;2024-02-21T09:25:30;16.90;;;6.53;;
75261;SDS011;63859;51.064;4.580;2024-02-21T09:27:56;16.17;;;6.50;;
75261;SDS011;63859;51.064;4.580;2024-02-21T09:30:23;13.80;;;6.07;;
75261;SDS011;63859;51.064;4.580;2024-02-21T09:32:49;16.37;;;5.77;;
75261;SDS011;63859;51.064;4.580;2024-02-21T09:35:14;17.73;;;6.70;;
75261;SDS011;63859;51.064;4.580;2024-02-21T09:37:40;11.07;;;5.63;;
75261;SDS011;63859;51.064;4.580;2024-02-21T09:40:06;13.23;;;5.80;;
75261;SDS011;63859;51.064;4.580;2024-02-21T09:42:41;12.77;;;6.10;;
75261;SDS011;63859;51.064;4.580;2024-02-21T09:45:08;12.87;;;5.90;;
75261;SDS011;63859;51.064;4.580;2024-02-21T09:50:44;11.10;;;4.80;;
75261;SDS011;63859;51.064;4.580;2024-02-21T09:53:12;9.90;;;5.50;;
75261;SDS011;63859;51.064;4.580;2024-02-21T09:55:41;13.40;;;5.70;;
75261;SDS011;63859;51.064;4.580;2024-02-21T09:58:08;13.40;;;5.33;;
75261;SDS011;63859;51.064;4.580;2024-02-21T10:00:35;11.80;;;5.03;;
75261;SDS011;63859;51.064;4.580;2024-02-21T10:03:01;13.67;;;6.00;;
75261;SDS011;63859;51.064;4.580;2024-02-21T10:05:37;10.00;;;4.30;;
75261;SDS011;63859;51.064;4.580;2024-02-21T10:08:03;10.17;;;5.10;;
75261;SDS011;63859;51.064;4.580;2024-02-21T10:10:29;13.40;;;5.00;;
75261;SDS011;63859;51.064;4.580;2024-02-21T10:13:05;14.73;;;6.67;;
75261;SDS011;63859;51.064;4.580;2024-02-21T10:15:31;8.97;;;4.83;;
75261;SDS011;63859;51.064;4.580;2024-02-21T10:18:00;11.00;;;5.70;;
75261;SDS011;63859;51.064;4.580;2024-02-21T10:20:28;14.40;;;4.87;;
75261;SDS011;63859;51.064;4.580;2024-02-21T10:23:03;8.63;;;4.57;;
75261;SDS011;63859;51.064;4.580;2024-02-21T10:25:36;12.40;;;4.40;;
75261;SDS011;63859;51.064;4.580;2024-02-21T10:28:12;17.10;;;4.90;;
75261;SDS011;63859;51.064;4.580;2024-02-21T10:30:37;8.67;;;4.67;;
75261;SDS011;63859;51.064;4.580;2024-02-21T10:33:03;11.57;;;4.43;;
75261;SDS011;63859;51.064;4.580;2024-02-21T10:35:32;9.70;;;4.13;;
75261;SDS011;63859;51.064;4.580;2024-02-21T10:37:58;14.17;;;4.50;;
75261;SDS011;63859;51.064;4.580;2024-02-21T10:40:25;11.27;;;4.30;;
75261;SDS011;63859;51.064;4.580;2024-02-21T10:42:55;8.83;;;3.83;;
75261;SDS011;63859;51.064;4.580;2024-02-21T10:45:23;10.90;;;4.10;;
75261;SDS011;63859;51.064;4.580;2024-02-21T10:48:06;7.73;;;3.50;;
75261;SDS011;63859;51.064;4.580;2024-02-21T10:50:33;15.57;;;4.83;;
75261;SDS011;63859;51.064;4.580;2024-02-21T10:58:42;14.47;;;3.77;;
75261;SDS011;63859;51.064;4.580;2024-02-21T11:01:08;13.00;;;4.47;;
75261;SDS011;63859;51.064;4.580;2024-02-21T11:03:34;13.87;;;4.07;;
75261;SDS011;63859;51.064;4.580;2024-02-21T11:06:01;13.83;;;3.53;;
75261;SDS011;63859;51.064;4.580;2024-02-21T11:08:27;9.00;;;3.90;;
75261;SDS011;63859;51.064;4.580;2024-02-21T11:10:56;17.93;;;4.00;;
75261;SDS011;63859;51.064;4.580;2024-02-21T11:13:32;12.07;;;3.63;;
75261;SDS011;63859;51.064;4.580;2024-02-21T11:16:10;18.33;;;4.30;;
75261;SDS011;63859;51.064;4.580;2024-02-21T11:18:46;17.70;;;3.73;;
75261;SDS011;63859;51.064;4.580;2024-02-21T11:21:12;19.85;;;4.05;;
75261;SDS011;63859;51.064;4.580;2024-02-21T11:23:37;9.93;;;3.63;;
75261;SDS011;63859;51.064;4.580;2024-02-21T11:26:06;9.07;;;3.67;;
75261;SDS011;63859;51.064;4.580;2024-02-21T11:28:33;18.83;;;3.77;;
75261;SDS011;63859;51.064;4.580;2024-02-21T11:31:11;10.20;;;3.50;;
75261;SDS011;63859;51.064;4.580;2024-02-21T11:33:41;15.43;;;3.80;;
75261;SDS011;63859;51.064;4.580;2024-02-21T11:36:10;21.13;;;4.18;;
75261;SDS011;63859;51.064;4.580;2024-02-21T11:38:36;12.93;;;3.67;;
75261;SDS011;63859;51.064;4.580;2024-02-21T11:41:02;11.30;;;3.35;;
75261;SDS011;63859;51.064;4.580;2024-02-21T11:43:28;10.50;;;3.30;;
75261;SDS011;63859;51.064;4.580;2024-02-21T11:46:00;12.23;;;3.65;;
75261;SDS011;63859;51.064;4.580;2024-02-21T11:48:27;8.13;;;3.28;;
75261;SDS011;63859;51.064;4.580;2024-02-21T11:50:54;6.87;;;3.20;;
75261;SDS011;63859;51.064;4.580;2024-02-21T11:53:20;8.23;;;2.90;;
75261;SDS011;63859;51.064;4.580;2024-02-21T11:55:46;12.02;;;3.05;;
75261;SDS011;63859;51.064;4.580;2024-02-21T11:58:12;9.17;;;3.20;;
75261;SDS011;63859;51.064;4.580;2024-02-21T12:00:37;8.60;;;2.63;;
75261;SDS011;63859;51.064;4.580;2024-02-21T12:03:04;7.30;;;2.92;;
75261;SDS011;63859;51.064;4.580;2024-02-21T12:05:30;9.20;;;2.70;;
75261;SDS011;63859;51.064;4.580;2024-02-21T12:07:57;8.40;;;3.50;;
75261;SDS011;63859;51.064;4.580;2024-02-21T12:10:23;9.95;;;3.30;;
75261;SDS011;63859;51.064;4.580;2024-02-21T12:12:51;11.10;;;3.73;;
75261;SDS011;63859;51.064;4.580;2024-02-21T12:15:17;6.43;;;2.80;;
75261;SDS011;63859;51.064;4.580;2024-02-21T12:17:44;18.70;;;3.58;;
75261;SDS011;63859;51.064;4.580;2024-02-21T12:20:10;10.10;;;3.53;;
75261;SDS011;63859;51.064;4.580;2024-02-21T12:22:39;7.33;;;2.80;;
75261;SDS011;63859;51.064;4.580;2024-02-21T12:25:16;8.63;;;3.23;;
75261;SDS011;63859;51.064;4.580;2024-02-21T12:27:43;7.47;;;2.80;;
75261;SDS011;63859;51.064;4.580;2024-02-21T12:30:09;12.87;;;3.60;;
75261;SDS011;63859;51.064;4.580;2024-02-21T12:32:35;13.00;;;3.87;;
75261;SDS011;63859;51.064;4.580;2024-02-21T12:35:02;51.83;;;5.53;;
75261;SDS011;63859;51.064;4.580;2024-02-21T12:37:29;9.80;;;3.87;;
75261;SDS011;63859;51.064;4.580;2024-02-21T12:39:54;17.67;;;4.40;;
75261;SDS011;63859;51.064;4.580;2024-02-21T12:42:20;13.37;;;3.70;;
75261;SDS011;63859;51.064;4.580;2024-02-21T12:44:48;12.10;;;3.63;;
75261;SDS011;63859;51.064;4.580;2024-02-21T12:47:14;9.00;;;3.37;;
75261;SDS011;63859;51.064;4.580;2024-02-21T12:49:39;13.13;;;3.80;;
75261;SDS011;63859;51.064;4.580;2024-02-21T12:52:05;8.83;;;3.37;;
75261;SDS011;63859;51.064;4.580;2024-02-21T12:54:31;9.93;;;3.73;;
75261;SDS011;63859;51.064;4.580;2024-02-21T12:56:56;7.73;;;3.50;;
75261;SDS011;63859;51.064;4.580;2024-02-21T12:59:23;8.10;;;3.73;;
75261;SDS011;63859;51.064;4.580;2024-02-21T13:01:48;7.30;;;3.80;;
75261;SDS011;63859;51.064;4.580;2024-02-21T13:04:14;9.20;;;3.93;;
75261;SDS011;63859;51.064;4.580;2024-02-21T13:06:40;13.77;;;3.80;;
75261;SDS011;63859;51.064;4.580;2024-02-21T13:09:06;7.90;;;3.63;;
75261;SDS011;63859;51.064;4.580;2024-02-21T13:11:35;10.67;;;4.00;;
75261;SDS011;63859;51.064;4.580;2024-02-21T13:14:02;9.70;;;4.20;;
75261;SDS011;63859;51.064;4.580;2024-02-21T13:16:28;14.43;;;4.60;;
75261;SDS011;63859;51.064;4.580;2024-02-21T13:18:54;8.27;;;3.43;;
75261;SDS011;63859;51.064;4.580;2024-02-21T13:21:19;8.70;;;3.87;;
75261;SDS011;63859;51.064;4.580;2024-02-21T13:23:46;26.23;;;5.13;;
75261;SDS011;63859;51.064;4.580;2024-02-21T13:26:12;8.00;;;3.70;;
75261;SDS011;63859;51.064;4.580;2024-02-21T13:28:38;12.57;;;4.53;;
75261;SDS011;63859;51.064;4.580;2024-02-21T13:31:03;16.07;;;4.33;;
75261;SDS011;63859;51.064;4.580;2024-02-21T13:33:29;9.75;;;4.05;;
75261;SDS011;63859;51.064;4.580;2024-02-21T13:35:55;9.20;;;3.70;;
75261;SDS011;63859;51.064;4.580;2024-02-21T13:38:21;13.53;;;3.50;;
75261;SDS011;63859;51.064;4.580;2024-02-21T13:40:49;19.20;;;4.50;;
75261;SDS011;63859;51.064;4.580;2024-02-21T13:43:15;7.87;;;3.90;;
75261;SDS011;63859;51.064;4.580;2024-02-21T13:45:41;11.23;;;4.07;;
75261;SDS011;63859;51.064;4.580;2024-02-21T13:48:21;13.27;;;4.40;;
75261;SDS011;63859;51.064;4.580;2024-02-21T13:50:46;8.30;;;3.67;;
75261;SDS011;63859;51.064;4.580;2024-02-21T13:53:12;8.37;;;3.80;;
75261;SDS011;63859;51.064;4.580;2024-02-21T13:55:37;11.10;;;4.07;;
75261;SDS011;63859;51.064;4.580;2024-02-21T13:58:05;7.03;;;3.63;;
75261;SDS011;63859;51.064;4.580;2024-02-21T14:00:31;11.03;;;4.30;;
75261;SDS011;63859;51.064;4.580;2024-02-21T14:02:59;5.67;;;3.90;;
75261;SDS011;63859;51.064;4.580;2024-02-21T14:05:26;11.23;;;4.03;;
75261;SDS011;63859;51.064;4.580;2024-02-21T14:07:52;8.97;;;4.23;;
75261;SDS011;63859;51.064;4.580;2024-02-21T14:10:19;10.47;;;4.20;;
75261;SDS011;63859;51.064;4.580;2024-02-21T14:12:45;9.77;;;4.30;;
75261;SDS011;63859;51.064;4.580;2024-02-21T14:15:12;11.57;;;4.47;;
75261;SDS011;63859;51.064;4.580;2024-02-21T14:17:38;11.27;;;4.83;;
75261;SDS011;63859;51.064;4.580;2024-02-21T14:20:04;8.90;;;4.47;;
75261;SDS011;63859;51.064;4.580;2024-02-21T14:22:33;17.20;;;4.70;;
75261;SDS011;63859;51.064;4.580;2024-02-21T14:25:01;6.40;;;4.23;;
75261;SDS011;63859;51.064;4.580;2024-02-21T14:27:27;9.73;;;4.83;;
75261;SDS011;63859;51.064;4.580;2024-02-21T14:29:53;12.33;;;4.80;;
75261;SDS011;63859;51.064;4.580;2024-02-21T14:32:19;12.73;;;5.07;;
75261;SDS011;63859;51.064;4.580;2024-02-21T14:34:45;9.80;;;4.50;;
75261;SDS011;63859;51.064;4.580;2024-02-21T14:37:11;10.30;;;4.57;;
75261;SDS011;63859;51.064;4.580;2024-02-21T14:39:37;8.33;;;4.30;;
75261;SDS011;63859;51.064;4.580;2024-02-21T14:42:03;10.97;;;4.77;;
75261;SDS011;63859;51.064;4.580;2024-02-21T14:44:29;5.27;;;4.03;;